createdAt,value
2022-12-03T00:00:40.834Z,6.27
2022-12-03T00:02:51.441Z,5.70
2022-12-03T00:05:00.516Z,6.33
2022-12-03T00:07:09.137Z,6.83
2022-12-03T00:09:18.251Z,5.90
2022-12-03T00:11:27.510Z,5.90
2022-12-03T00:13:36.360Z,6.10
2022-12-03T00:15:45.335Z,6.10
2022-12-03T00:17:55.606Z,6.43
2022-12-03T00:20:04.333Z,5.77
2022-12-03T00:22:13.207Z,6.33
2022-12-03T00:24:22.640Z,6.47
2022-12-03T00:26:31.956Z,5.63
2022-12-03T00:28:40.960Z,6.00
2022-12-03T00:30:49.760Z,5.67
2022-12-03T00:33:00.300Z,5.73
2022-12-03T00:35:09.528Z,5.67
2022-12-03T00:37:18.592Z,5.83
2022-12-03T00:39:27.590Z,5.83
2022-12-03T00:41:36.627Z,6.07
2022-12-03T00:43:46.559Z,5.77
2022-12-03T00:45:55.413Z,5.77
2022-12-03T00:48:06.456Z,5.40
2022-12-03T00:50:15.520Z,5.90
2022-12-03T00:52:24.865Z,5.87
2022-12-03T00:54:34.210Z,5.70
2022-12-03T00:56:43.066Z,5.77
2022-12-03T00:58:52.155Z,5.93
2022-12-03T01:01:00.935Z,6.03
2022-12-03T01:03:12.731Z,5.73
2022-12-03T01:05:22.129Z,5.57
2022-12-03T01:07:31.229Z,5.90
2022-12-03T01:09:40.489Z,5.83
2022-12-03T01:11:49.748Z,5.77
2022-12-03T01:13:59.329Z,5.30
2022-12-03T01:16:08.364Z,5.53
2022-12-03T01:18:19.104Z,5.90
2022-12-03T01:20:28.439Z,5.20
2022-12-03T01:22:38.143Z,5.40
2022-12-03T01:24:47.241Z,6.40
2022-12-03T01:26:57.010Z,5.80
2022-12-03T01:29:06.410Z,5.67
2022-12-03T01:31:33.309Z,5.87
2022-12-03T01:33:44.341Z,5.23
2022-12-03T01:35:53.587Z,6.27
2022-12-03T01:38:02.651Z,6.17
2022-12-03T01:40:13.909Z,6.13
2022-12-03T01:42:24.518Z,6.43
2022-12-03T01:44:34.571Z,6.17
2022-12-03T01:46:44.396Z,5.30
2022-12-03T01:48:56.554Z,5.90
2022-12-03T01:51:05.798Z,5.73
2022-12-03T01:53:18.653Z,6.23
2022-12-03T01:55:28.593Z,5.83
2022-12-03T01:57:41.618Z,5.77
2022-12-03T01:59:50.766Z,6.27
2022-12-03T02:01:59.894Z,6.20
2022-12-03T02:04:11.348Z,5.90
2022-12-03T02:06:22.125Z,6.03
2022-12-03T02:08:34.906Z,5.67
2022-12-03T02:10:43.941Z,6.77
2022-12-03T02:12:55.379Z,6.30
2022-12-03T02:15:04.607Z,6.73
2022-12-03T02:17:13.820Z,6.53
2022-12-03T02:19:27.226Z,6.40
2022-12-03T02:21:39.950Z,6.47
2022-12-03T02:23:53.970Z,6.27
2022-12-03T02:26:04.097Z,5.93
2022-12-03T02:28:13.490Z,6.03
2022-12-03T02:30:24.061Z,4.87
2022-12-03T02:32:33.047Z,6.07
2022-12-03T02:34:42.602Z,5.47
2022-12-03T02:36:51.431Z,5.93
2022-12-03T02:39:00.963Z,5.80
2022-12-03T02:41:33.053Z,6.63
2022-12-03T02:43:40.748Z,5.63
2022-12-03T02:45:51.597Z,6.30
2022-12-03T02:48:01.758Z,6.40
2022-12-03T02:50:11.798Z,6.37
2022-12-03T02:52:20.911Z,6.60
2022-12-03T02:54:29.624Z,6.10
2022-12-03T02:56:40.126Z,6.23
2022-12-03T02:58:50.255Z,5.60
2022-12-03T03:00:59.970Z,6.00
2022-12-03T03:03:09.843Z,6.13
2022-12-03T03:05:21.674Z,6.20
2022-12-03T03:07:30.802Z,6.30
2022-12-03T03:09:40.271Z,5.80
2022-12-03T03:11:50.971Z,5.73
2022-12-03T03:13:59.889Z,5.83
2022-12-03T03:16:09.558Z,5.63
2022-12-03T03:18:19.826Z,6.30
2022-12-03T03:20:29.181Z,5.87
2022-12-03T03:22:38.822Z,6.77
2022-12-03T03:24:47.649Z,5.93
2022-12-03T03:26:58.459Z,5.93
2022-12-03T03:29:07.639Z,6.43
2022-12-03T03:31:17.871Z,6.90
2022-12-03T03:33:27.007Z,5.93
2022-12-03T03:35:36.309Z,7.03
2022-12-03T03:37:45.433Z,6.17
2022-12-03T03:39:54.562Z,6.37
2022-12-03T03:42:05.278Z,6.27
2022-12-03T03:44:14.457Z,6.03
2022-12-03T03:46:24.046Z,6.67
2022-12-03T03:48:34.375Z,6.13
2022-12-03T03:50:43.811Z,6.07
2022-12-03T03:52:53.149Z,6.43
2022-12-03T03:55:02.219Z,6.33
2022-12-03T03:57:13.040Z,6.13
2022-12-03T03:59:21.661Z,6.67
2022-12-03T04:01:31.235Z,6.33
2022-12-03T04:03:40.089Z,5.70
2022-12-03T04:05:51.253Z,5.97
2022-12-03T04:08:00.846Z,6.07
2022-12-03T04:10:38.884Z,5.50
2022-12-03T04:12:57.414Z,5.20
2022-12-03T04:15:07.551Z,4.87
2022-12-03T04:17:16.908Z,4.60
2022-12-03T04:19:24.712Z,5.13
2022-12-03T04:21:51.297Z,3.87
2022-12-03T04:24:00.368Z,4.67
2022-12-03T04:26:26.852Z,4.73
2022-12-03T04:28:51.569Z,3.47
2022-12-03T04:31:00.536Z,3.87
2022-12-03T04:33:27.545Z,3.57
2022-12-03T04:35:44.193Z,4.23
2022-12-03T04:37:52.939Z,4.03
2022-12-03T04:40:01.987Z,3.47
2022-12-03T04:42:09.942Z,3.43
2022-12-03T04:44:36.722Z,3.60
2022-12-03T04:46:45.986Z,3.73
2022-12-03T04:48:55.379Z,3.53
2022-12-03T04:51:04.274Z,3.13
2022-12-03T04:53:13.953Z,3.60
2022-12-03T04:55:22.725Z,3.50
2022-12-03T04:57:32.294Z,3.53
2022-12-03T04:59:43.228Z,2.80
2022-12-03T05:01:52.268Z,2.67
2022-12-03T05:04:01.337Z,2.90
2022-12-03T05:06:10.286Z,2.90
2022-12-03T05:08:19.267Z,2.63
2022-12-03T05:10:28.558Z,2.93
2022-12-03T05:12:37.562Z,3.30
2022-12-03T05:14:48.281Z,3.10
2022-12-03T05:16:57.257Z,2.77
2022-12-03T05:19:06.985Z,3.00
2022-12-03T05:21:14.998Z,3.37
2022-12-03T05:23:24.488Z,3.13
2022-12-03T05:25:33.548Z,3.03
2022-12-03T05:27:42.201Z,3.10
2022-12-03T05:29:52.635Z,3.83
2022-12-03T05:32:01.693Z,3.73
2022-12-03T05:34:10.623Z,3.67
2022-12-03T05:36:19.595Z,3.57
2022-12-03T05:38:28.715Z,3.67
2022-12-03T05:40:37.745Z,3.60
2022-12-03T05:42:54.506Z,4.30
2022-12-03T05:45:05.634Z,3.60
2022-12-03T05:47:14.665Z,3.53
2022-12-03T05:49:23.960Z,4.00
2022-12-03T05:51:32.898Z,3.97
2022-12-03T05:53:41.883Z,4.00
2022-12-03T05:55:50.703Z,4.30
2022-12-03T05:58:00.189Z,4.10
2022-12-03T06:00:14.643Z,4.00
2022-12-03T06:02:23.666Z,3.47
2022-12-03T06:04:32.995Z,3.90
2022-12-03T06:06:42.184Z,4.17
2022-12-03T06:08:51.219Z,3.20
2022-12-03T06:11:00.355Z,3.13
2022-12-03T06:13:09.345Z,2.70
2022-12-03T06:15:20.598Z,3.20
2022-12-03T06:17:29.908Z,2.87
2022-12-03T06:19:39.458Z,2.90
2022-12-03T06:21:48.482Z,3.10
2022-12-03T06:23:57.446Z,2.90
2022-12-03T06:26:06.123Z,3.27
2022-12-03T06:28:15.295Z,2.87
2022-12-03T06:30:26.366Z,2.87
2022-12-03T06:32:35.413Z,2.90
2022-12-03T06:34:44.139Z,3.40
2022-12-03T06:36:53.240Z,3.30
2022-12-03T06:39:01.860Z,2.87
2022-12-03T06:41:10.619Z,3.27
2022-12-03T06:43:19.914Z,3.30
2022-12-03T06:45:30.517Z,2.53
2022-12-03T06:47:39.368Z,2.47
2022-12-03T06:49:48.497Z,3.20
2022-12-03T06:51:57.559Z,3.13
2022-12-03T06:54:06.809Z,2.90
2022-12-03T06:56:18.916Z,3.03
2022-12-03T06:58:30.612Z,3.20
2022-12-03T07:00:41.625Z,2.83
2022-12-03T07:02:50.447Z,3.30
2022-12-03T07:04:59.805Z,3.00
2022-12-03T07:07:08.853Z,2.90
2022-12-03T07:09:18.450Z,3.93
2022-12-03T07:11:33.264Z,3.30
2022-12-03T07:13:42.252Z,3.47
2022-12-03T07:15:52.611Z,3.37
2022-12-03T07:18:02.978Z,2.87
2022-12-03T07:20:12.265Z,3.53
2022-12-03T07:22:21.552Z,3.57
2022-12-03T07:24:30.477Z,3.70
2022-12-03T07:26:39.227Z,3.33
2022-12-03T07:28:48.463Z,2.90
2022-12-03T07:30:58.906Z,3.70
2022-12-03T07:33:07.566Z,3.13
2022-12-03T07:35:16.552Z,3.30
2022-12-03T07:37:26.020Z,3.23
2022-12-03T07:39:35.039Z,2.93
2022-12-03T07:41:43.709Z,4.30
2022-12-03T07:43:52.451Z,3.63
2022-12-03T07:46:03.238Z,3.90
2022-12-03T07:48:12.319Z,3.20
2022-12-03T07:50:21.676Z,3.30
2022-12-03T07:52:30.381Z,3.30
2022-12-03T07:54:39.433Z,3.50
2022-12-03T07:56:49.335Z,3.23
2022-12-03T07:58:58.012Z,3.10
2022-12-03T08:01:08.816Z,3.60
2022-12-03T08:03:17.921Z,3.10
2022-12-03T08:05:28.422Z,3.90
2022-12-03T08:07:37.698Z,3.57
2022-12-03T08:09:46.860Z,3.33
2022-12-03T08:11:55.827Z,3.47
2022-12-03T08:14:04.954Z,3.40
2022-12-03T08:16:18.419Z,3.40
2022-12-03T08:18:27.669Z,2.90
2022-12-03T08:20:37.492Z,3.30
2022-12-03T08:22:46.947Z,3.73
2022-12-03T08:24:56.094Z,3.40
2022-12-03T08:27:07.863Z,3.30
2022-12-03T08:29:17.542Z,3.20
2022-12-03T08:31:33.174Z,2.93
2022-12-03T08:33:42.884Z,3.30
2022-12-03T08:35:52.680Z,3.23
2022-12-03T08:38:03.638Z,3.83
2022-12-03T08:40:30.315Z,3.03
2022-12-03T08:42:45.391Z,3.80
2022-12-03T08:44:56.336Z,3.33
2022-12-03T08:47:14.254Z,3.40
2022-12-03T08:49:23.721Z,3.57
2022-12-03T08:51:33.112Z,3.30
2022-12-03T08:53:46.658Z,3.43
2022-12-03T08:55:56.161Z,3.00
2022-12-03T08:58:16.996Z,2.87
2022-12-03T09:00:26.677Z,3.20
2022-12-03T09:02:37.120Z,2.80
2022-12-03T09:04:47.748Z,3.40
2022-12-03T09:06:57.013Z,3.30
2022-12-03T09:09:06.995Z,3.87
2022-12-03T09:11:16.568Z,3.60
2022-12-03T09:13:25.816Z,3.30
2022-12-03T09:15:34.716Z,3.70
2022-12-03T09:17:45.502Z,3.37
2022-12-03T09:19:54.642Z,3.70
2022-12-03T09:22:03.727Z,3.70
2022-12-03T09:24:13.137Z,3.33
2022-12-03T09:26:22.024Z,3.20
2022-12-03T09:28:30.982Z,3.90
2022-12-03T09:30:43.350Z,2.83
2022-12-03T09:32:54.078Z,2.83
2022-12-03T09:35:03.113Z,2.63
2022-12-03T09:37:12.175Z,2.60
2022-12-03T09:39:21.390Z,3.00
2022-12-03T09:41:30.512Z,2.90
2022-12-03T09:46:09.391Z,2.90
2022-12-03T09:48:20.969Z,2.73
2022-12-03T09:50:29.900Z,2.83
2022-12-03T09:52:38.647Z,3.00
2022-12-03T09:54:47.858Z,3.03
2022-12-03T09:56:57.867Z,2.67
2022-12-03T09:59:09.205Z,2.30
2022-12-03T10:01:18.286Z,3.17
2022-12-03T10:03:31.265Z,3.13
2022-12-03T10:05:43.795Z,2.20
2022-12-03T10:07:58.704Z,3.10
2022-12-03T10:10:09.362Z,2.63
2022-12-03T10:12:23.188Z,2.23
2022-12-03T10:14:32.305Z,2.70
2022-12-03T10:16:42.035Z,3.17
2022-12-03T10:18:53.574Z,2.87
2022-12-03T10:21:02.938Z,2.33
2022-12-03T10:23:11.564Z,3.00
2022-12-03T10:25:21.961Z,2.43
2022-12-03T10:27:32.992Z,2.23
2022-12-03T10:29:41.821Z,2.73
2022-12-03T10:31:56.735Z,2.73
2022-12-03T10:34:07.507Z,2.60
2022-12-03T10:36:21.844Z,2.37
2022-12-03T10:38:30.930Z,2.63
2022-12-03T10:40:40.956Z,3.03
2022-12-03T10:42:49.878Z,3.00
2022-12-03T10:45:19.287Z,3.20
2022-12-03T10:47:28.686Z,2.33
2022-12-03T10:49:39.925Z,2.57
2022-12-03T10:51:49.476Z,2.90
2022-12-03T10:53:58.486Z,2.77
2022-12-03T10:56:09.380Z,2.77
2022-12-03T10:58:21.631Z,2.47
2022-12-03T11:00:31.206Z,3.17
2022-12-03T11:02:39.996Z,2.20
2022-12-03T11:04:51.778Z,2.40
2022-12-03T11:07:01.511Z,2.60
2022-12-03T11:09:15.064Z,2.07
2022-12-03T11:11:26.115Z,2.03
2022-12-03T11:13:49.355Z,2.27
2022-12-03T11:15:58.302Z,2.67
2022-12-03T11:18:07.012Z,2.30
2022-12-03T11:20:30.883Z,2.27
2022-12-03T11:22:44.378Z,2.53
2022-12-03T11:25:19.152Z,2.57
2022-12-03T11:27:30.231Z,2.90
2022-12-03T11:29:50.490Z,2.60
2022-12-03T11:31:59.522Z,2.53
2022-12-03T11:34:27.233Z,2.47
2022-12-03T11:37:00.458Z,2.60
2022-12-03T11:39:04.969Z,2.53
2022-12-03T11:41:15.195Z,2.37
2022-12-03T11:43:39.105Z,2.37
2022-12-03T11:45:50.026Z,2.50
2022-12-03T11:48:07.397Z,2.50
2022-12-03T11:50:23.445Z,2.57
2022-12-03T11:52:33.450Z,2.57
2022-12-03T11:54:42.681Z,2.47
2022-12-03T11:56:52.570Z,2.23
2022-12-03T11:59:02.590Z,2.50
2022-12-03T12:01:13.849Z,2.03
2022-12-03T12:03:25.114Z,2.33
2022-12-03T12:05:35.865Z,2.77
2022-12-03T12:07:47.915Z,2.70
2022-12-03T12:09:58.363Z,2.60
2022-12-03T12:12:19.834Z,2.83
2022-12-03T12:14:28.908Z,2.60
2022-12-03T12:16:41.504Z,2.33
2022-12-03T12:18:55.219Z,2.37
2022-12-03T12:21:23.396Z,2.53
2022-12-03T12:23:32.483Z,2.13
2022-12-03T12:25:42.207Z,3.10
2022-12-03T12:27:53.843Z,3.20
2022-12-03T12:30:03.547Z,2.53
2022-12-03T12:32:18.734Z,2.70
2022-12-03T12:34:28.198Z,2.67
2022-12-03T12:36:37.213Z,3.27
2022-12-03T12:38:46.819Z,2.97
2022-12-03T12:40:56.063Z,3.00
2022-12-03T12:43:12.393Z,2.83
2022-12-03T12:45:24.146Z,3.00
2022-12-03T12:47:34.847Z,3.33
2022-12-03T12:49:48.698Z,3.00
2022-12-03T12:52:01.466Z,2.70
2022-12-03T12:54:12.764Z,3.43
2022-12-03T12:56:25.480Z,3.37
2022-12-03T12:58:35.777Z,3.00
2022-12-03T13:00:44.939Z,4.30
2022-12-03T13:02:57.542Z,2.93
2022-12-03T13:05:06.996Z,3.10
2022-12-03T13:07:18.637Z,2.53
2022-12-03T13:09:28.290Z,2.83
2022-12-03T13:11:41.542Z,9.93
2022-12-03T13:13:50.918Z,2.63
2022-12-03T13:16:01.794Z,2.97
2022-12-03T13:18:30.367Z,3.20
2022-12-03T13:20:39.655Z,3.13
2022-12-03T13:22:48.386Z,2.57
2022-12-03T13:25:00.316Z,3.30
2022-12-03T13:27:23.200Z,2.60
2022-12-03T13:29:34.285Z,2.60
2022-12-03T13:31:44.381Z,2.87
2022-12-03T13:33:55.810Z,2.93
2022-12-03T13:36:04.873Z,2.87
2022-12-03T13:38:16.271Z,3.10
2022-12-03T13:40:26.930Z,3.23
2022-12-03T13:42:39.685Z,3.27
2022-12-03T13:44:49.897Z,3.13
2022-12-03T13:46:58.674Z,2.80
2022-12-03T13:49:16.235Z,3.00
2022-12-03T13:51:27.247Z,3.03
2022-12-03T13:53:36.889Z,3.40
2022-12-03T13:55:47.047Z,2.87
2022-12-03T13:57:55.779Z,2.80
2022-12-03T14:00:04.894Z,3.30
2022-12-03T14:02:13.834Z,3.97
2022-12-03T14:04:24.139Z,3.27
2022-12-03T14:06:34.175Z,3.57
2022-12-03T14:08:43.314Z,3.63
2022-12-03T14:10:58.608Z,3.77
2022-12-03T14:13:09.381Z,4.47
2022-12-03T14:15:19.196Z,5.17
2022-12-03T14:17:27.959Z,4.37
2022-12-03T14:19:39.057Z,4.53
2022-12-03T14:21:48.088Z,4.47
2022-12-03T14:23:57.067Z,4.77
2022-12-03T14:26:05.801Z,4.60
2022-12-03T14:28:14.729Z,3.93
2022-12-03T14:30:24.045Z,3.97
2022-12-03T14:32:33.082Z,3.50
2022-12-03T14:34:43.554Z,3.97
2022-12-03T14:36:52.262Z,6.93
2022-12-03T14:39:01.292Z,4.33
2022-12-03T14:41:30.261Z,3.80
2022-12-03T14:43:38.906Z,4.30
2022-12-03T14:45:48.309Z,5.50
2022-12-03T14:47:57.685Z,5.07
2022-12-03T14:50:14.660Z,3.80
2022-12-03T14:52:23.446Z,4.00
2022-12-03T14:54:32.272Z,3.77
2022-12-03T14:56:41.260Z,3.53
2022-12-03T14:58:50.892Z,3.43
2022-12-03T15:01:00.284Z,3.73
2022-12-03T15:03:09.385Z,5.73
2022-12-03T15:05:27.951Z,4.53
2022-12-03T15:07:39.748Z,5.30
2022-12-03T15:09:48.533Z,6.10
2022-12-03T15:11:57.273Z,5.20
2022-12-03T15:14:07.195Z,5.03
2022-12-03T15:16:16.081Z,4.50
2022-12-03T15:18:25.187Z,4.50
2022-12-03T15:20:35.780Z,4.33
2022-12-03T15:22:44.893Z,4.13
2022-12-03T15:24:54.310Z,4.17
2022-12-03T15:27:03.254Z,4.90
2022-12-03T15:29:12.254Z,4.23
2022-12-03T15:31:23.464Z,4.27
2022-12-03T15:33:32.581Z,4.70
2022-12-03T15:35:44.368Z,4.10
2022-12-03T15:37:53.409Z,4.60
2022-12-03T15:40:03.275Z,4.80
2022-12-03T15:42:12.496Z,5.30
2022-12-03T15:44:21.855Z,3.97
2022-12-03T15:46:31.855Z,3.90
2022-12-03T15:48:41.042Z,3.37
2022-12-03T15:50:51.321Z,4.37
2022-12-03T15:53:00.305Z,4.10
2022-12-03T15:55:09.508Z,4.00
2022-12-03T15:57:18.430Z,3.80
2022-12-03T15:59:27.241Z,4.10
2022-12-03T16:01:35.943Z,4.23
2022-12-03T16:03:45.275Z,3.53
2022-12-03T16:05:56.118Z,3.60
2022-12-03T16:08:05.437Z,3.57
2022-12-03T16:10:17.198Z,3.60
2022-12-03T16:12:26.556Z,3.83
2022-12-03T16:14:35.657Z,3.87
2022-12-03T16:16:44.905Z,4.10
2022-12-03T16:18:53.904Z,3.73
2022-12-03T16:21:04.308Z,4.10
2022-12-03T16:23:13.389Z,4.37
2022-12-03T16:25:22.432Z,4.00
2022-12-03T16:27:31.176Z,3.70
2022-12-03T16:29:40.308Z,5.00
2022-12-03T16:31:49.288Z,4.73
2022-12-03T16:33:58.277Z,4.70
2022-12-03T16:36:09.211Z,5.23
2022-12-03T16:38:17.972Z,5.00
2022-12-03T16:40:26.914Z,4.37
2022-12-03T16:42:37.717Z,4.50
2022-12-03T16:45:15.804Z,4.63
2022-12-03T16:47:28.181Z,4.10
2022-12-03T16:49:41.236Z,4.17
2022-12-03T16:51:51.886Z,3.87
2022-12-03T16:54:00.723Z,4.00
2022-12-03T16:56:09.941Z,3.47
2022-12-03T16:58:21.629Z,4.03
2022-12-03T17:00:30.474Z,3.70
2022-12-03T17:02:39.611Z,3.57
2022-12-03T17:04:48.280Z,3.50
2022-12-03T17:06:59.454Z,3.97
2022-12-03T17:09:08.202Z,3.83
2022-12-03T17:11:17.181Z,4.43
2022-12-03T17:13:26.248Z,4.50
2022-12-03T17:15:35.257Z,4.67
2022-12-03T17:17:44.086Z,4.70
2022-12-03T17:19:54.305Z,5.23
2022-12-03T17:22:05.156Z,4.87
2022-12-03T17:24:14.288Z,3.60
2022-12-03T17:26:23.303Z,4.60
2022-12-03T17:28:32.516Z,4.43
2022-12-03T17:30:41.779Z,4.17
2022-12-03T17:32:51.154Z,3.93
2022-12-03T17:35:00.021Z,4.90
2022-12-03T17:37:10.338Z,6.43
2022-12-03T17:39:19.197Z,6.10
2022-12-03T17:41:28.211Z,8.30
2022-12-03T17:43:37.298Z,5.90
2022-12-03T17:45:45.976Z,5.93
2022-12-03T17:47:54.794Z,7.00
2022-12-03T17:50:03.526Z,8.33
2022-12-03T17:52:14.173Z,5.50
2022-12-03T17:54:23.036Z,8.80
2022-12-03T17:56:31.656Z,4.80
2022-12-03T17:58:40.844Z,5.67
2022-12-03T18:00:49.836Z,4.80
2022-12-03T18:02:58.850Z,5.40
2022-12-03T18:05:07.822Z,5.10
2022-12-03T18:07:18.460Z,4.43
2022-12-03T18:09:27.152Z,5.20
2022-12-03T18:11:36.259Z,5.40
2022-12-03T18:13:45.419Z,6.17
2022-12-03T18:15:55.669Z,4.10
2022-12-03T18:18:04.489Z,4.73
2022-12-03T18:20:13.747Z,4.70
2022-12-03T18:22:24.843Z,4.83
2022-12-03T18:24:33.780Z,4.33
2022-12-03T18:26:43.584Z,4.07
2022-12-03T18:28:52.942Z,3.80
2022-12-03T18:31:02.312Z,4.57
2022-12-03T18:33:11.220Z,4.43
2022-12-03T18:35:20.859Z,4.70
2022-12-03T18:37:31.932Z,4.83
2022-12-03T18:39:42.521Z,4.17
2022-12-03T18:41:51.224Z,4.50
2022-12-03T18:44:00.293Z,4.40
2022-12-03T18:46:31.318Z,4.40
2022-12-03T18:48:40.885Z,5.63
2022-12-03T18:50:49.960Z,7.13
2022-12-03T18:53:00.916Z,7.53
2022-12-03T18:55:10.758Z,6.43
2022-12-03T18:57:19.851Z,6.77
2022-12-03T18:59:28.970Z,5.00
2022-12-03T19:01:38.473Z,5.30
2022-12-03T19:03:48.060Z,6.00
2022-12-03T19:05:57.107Z,7.20
2022-12-03T19:08:14.487Z,7.90
2022-12-03T19:10:23.792Z,7.00
2022-12-03T19:12:32.642Z,7.47
2022-12-03T19:14:41.581Z,5.97
2022-12-03T19:16:50.852Z,5.17
2022-12-03T19:19:00.086Z,5.70
2022-12-03T19:21:10.128Z,6.63
2022-12-03T19:23:20.479Z,5.93
2022-12-03T19:25:29.496Z,4.83
2022-12-03T19:27:38.667Z,6.83
2022-12-03T19:29:50.340Z,6.80
2022-12-03T19:31:59.350Z,7.00
2022-12-03T19:34:08.674Z,6.53
2022-12-03T19:36:22.402Z,3.97
2022-12-03T19:38:32.701Z,7.17
2022-12-03T19:40:41.660Z,8.70
2022-12-03T19:42:50.708Z,4.60
2022-12-03T19:45:00.088Z,5.13
2022-12-03T19:47:09.174Z,5.70
2022-12-03T19:49:21.182Z,4.70
2022-12-03T19:51:35.018Z,5.07
2022-12-03T19:53:46.523Z,4.37
2022-12-03T19:55:55.866Z,4.93
2022-12-03T19:58:05.182Z,4.87
2022-12-03T20:00:15.273Z,6.13
2022-12-03T20:02:24.426Z,5.63
2022-12-03T20:04:33.300Z,5.23
2022-12-03T20:06:41.951Z,4.83
2022-12-03T20:08:52.698Z,4.80
2022-12-03T20:11:09.426Z,5.90
2022-12-03T20:13:18.263Z,6.77
2022-12-03T20:15:27.307Z,7.10
2022-12-03T20:17:36.914Z,5.80
2022-12-03T20:19:45.569Z,5.77
2022-12-03T20:22:00.754Z,3.83
2022-12-03T20:24:15.141Z,4.03
2022-12-03T20:26:24.316Z,4.97
2022-12-03T20:28:33.112Z,5.93
2022-12-03T20:30:42.540Z,5.00
2022-12-03T20:32:51.338Z,4.47
2022-12-03T20:35:00.658Z,4.57
2022-12-03T20:37:09.830Z,5.40
2022-12-03T20:39:20.330Z,5.57
2022-12-03T20:41:29.062Z,5.43
2022-12-03T20:43:38.605Z,5.40
2022-12-03T20:45:47.575Z,4.47
2022-12-03T20:47:56.801Z,4.93
2022-12-03T20:50:05.966Z,4.27
2022-12-03T20:52:15.556Z,3.73
2022-12-03T20:54:26.401Z,3.87
2022-12-03T20:56:35.866Z,4.00
2022-12-03T20:58:45.768Z,4.73
2022-12-03T21:00:55.148Z,4.57
2022-12-03T21:03:05.517Z,3.90
2022-12-03T21:05:15.572Z,5.60
2022-12-03T21:07:26.349Z,4.70
2022-12-03T21:09:39.039Z,3.80
2022-12-03T21:11:47.606Z,3.60
2022-12-03T21:13:58.674Z,4.07
2022-12-03T21:16:09.337Z,3.60
2022-12-03T21:18:21.105Z,3.70
2022-12-03T21:20:29.738Z,3.77
2022-12-03T21:22:39.370Z,3.70
2022-12-03T21:24:49.924Z,4.47
2022-12-03T21:27:00.899Z,4.97
2022-12-03T21:29:10.289Z,3.30
2022-12-03T21:31:21.235Z,4.13
2022-12-03T21:33:32.153Z,3.90
2022-12-03T21:35:41.140Z,3.70
2022-12-03T21:37:50.243Z,4.03
2022-12-03T21:40:00.823Z,3.50
2022-12-03T21:42:34.749Z,3.90
2022-12-03T21:44:39.940Z,3.13
2022-12-03T21:47:09.748Z,3.90
2022-12-03T21:49:20.099Z,4.17
2022-12-03T21:51:31.212Z,3.77
2022-12-03T21:53:43.641Z,5.07
2022-12-03T21:55:54.824Z,3.63
2022-12-03T21:58:03.655Z,3.73
2022-12-03T22:00:13.195Z,3.60
2022-12-03T22:02:22.468Z,3.47
2022-12-03T22:04:31.428Z,3.60
2022-12-03T22:06:40.659Z,3.33
2022-12-03T22:08:49.729Z,3.53
2022-12-03T22:11:01.108Z,3.60
2022-12-03T22:13:10.520Z,4.10
2022-12-03T22:15:19.786Z,3.90
2022-12-03T22:17:29.596Z,3.97
2022-12-03T22:19:39.922Z,3.50
2022-12-03T22:21:49.086Z,3.07
2022-12-03T22:23:58.245Z,3.27
2022-12-03T22:26:10.222Z,3.43
2022-12-03T22:28:18.990Z,3.53
2022-12-03T22:30:28.141Z,4.17
2022-12-03T22:32:37.673Z,5.07
2022-12-03T22:34:46.782Z,3.43
2022-12-03T22:36:55.917Z,3.40
2022-12-03T22:39:06.207Z,3.20
2022-12-03T22:41:17.869Z,3.53
2022-12-03T22:43:27.136Z,3.70
2022-12-03T22:45:38.138Z,3.63
2022-12-03T22:47:47.036Z,3.77
2022-12-03T22:49:56.470Z,3.77
2022-12-03T22:52:05.546Z,3.77
2022-12-03T22:54:18.137Z,3.90
2022-12-03T22:56:32.137Z,3.50
2022-12-03T22:58:41.657Z,3.90
2022-12-03T23:00:51.149Z,3.60
2022-12-03T23:03:00.398Z,3.60
2022-12-03T23:05:10.584Z,3.63
2022-12-03T23:07:19.393Z,3.77
2022-12-03T23:09:27.948Z,3.73
2022-12-03T23:11:40.181Z,3.77
2022-12-03T23:13:50.176Z,4.00
2022-12-03T23:16:00.541Z,4.00
2022-12-03T23:18:09.290Z,3.60
2022-12-03T23:20:18.485Z,3.50
2022-12-03T23:22:28.717Z,4.00
2022-12-03T23:24:38.409Z,4.20
2022-12-03T23:26:49.258Z,4.10
2022-12-03T23:28:58.206Z,3.70
2022-12-03T23:31:07.755Z,4.13
2022-12-03T23:33:17.186Z,3.30
2022-12-03T23:35:26.523Z,3.80
2022-12-03T23:37:35.534Z,4.07
2022-12-03T23:39:44.164Z,4.13
2022-12-03T23:41:54.892Z,3.83
2022-12-03T23:44:03.888Z,4.30
2022-12-03T23:46:13.977Z,3.60
2022-12-03T23:48:22.808Z,3.33
2022-12-03T23:50:32.514Z,3.80
2022-12-03T23:52:41.692Z,4.10
2022-12-03T23:54:50.797Z,3.47
2022-12-03T23:57:00.994Z,3.17
2022-12-03T23:59:10.071Z,3.70
